sensor_id;sensor_type;location;lat;lon;timestamp;pressure;altitude;pressure_sealevel;temperature;humidity
35655;BME280;21773;50.010;19.972;2023-09-19T00:02:05;98118.44;;;24.06;100.00
35655;BME280;21773;50.010;19.972;2023-09-19T00:05:08;98118.59;;;24.09;100.00
35655;BME280;21773;50.010;19.972;2023-09-19T00:08:12;98123.31;;;24.09;100.00
35655;BME280;21773;50.010;19.972;2023-09-19T00:11:16;98115.53;;;24.11;100.00
35655;BME280;21773;50.010;19.972;2023-09-19T00:14:24;98111.16;;;24.19;100.00
35655;BME280;21773;50.010;19.972;2023-09-19T00:17:28;98110.19;;;24.23;100.00
35655;BME280;21773;50.010;19.972;2023-09-19T00:20:35;98113.75;;;24.24;100.00
35655;BME280;21773;50.010;19.972;2023-09-19T00:23:38;98109.69;;;24.21;100.00
35655;BME280;21773;50.010;19.972;2023-09-19T00:26:44;98116.97;;;24.26;100.00
35655;BME280;21773;50.010;19.972;2023-09-19T00:29:51;98121.97;;;24.32;100.00
35655;BME280;21773;50.010;19.972;2023-09-19T00:32:54;98109.97;;;24.37;100.00
35655;BME280;21773;50.010;19.972;2023-09-19T00:35:58;98110.09;;;24.40;100.00
35655;BME280;21773;50.010;19.972;2023-09-19T00:39:04;98112.84;;;24.40;100.00
35655;BME280;21773;50.010;19.972;2023-09-19T00:42:08;98112.03;;;24.40;100.00
35655;BME280;21773;50.010;19.972;2023-09-19T00:45:14;98116.13;;;24.34;100.00
35655;BME280;21773;50.010;19.972;2023-09-19T00:48:18;98114.34;;;24.38;100.00
35655;BME280;21773;50.010;19.972;2023-09-19T00:51:23;98110.59;;;24.34;100.00
35655;BME280;21773;50.010;19.972;2023-09-19T00:54:27;98114.34;;;24.38;100.00
35655;BME280;21773;50.010;19.972;2023-09-19T00:57:31;98094.94;;;24.26;100.00
35655;BME280;21773;50.010;19.972;2023-09-19T01:00:37;98110.47;;;24.30;100.00
35655;BME280;21773;50.010;19.972;2023-09-19T01:03:42;98112.25;;;24.26;100.00
35655;BME280;21773;50.010;19.972;2023-09-19T01:06:48;98120.56;;;24.00;100.00
35655;BME280;21773;50.010;19.972;2023-09-19T01:09:55;98118.00;;;23.87;100.00
35655;BME280;21773;50.010;19.972;2023-09-19T01:13:05;98114.63;;;23.72;100.00
35655;BME280;21773;50.010;19.972;2023-09-19T01:16:19;98095.56;;;23.59;100.00
35655;BME280;21773;50.010;19.972;2023-09-19T01:23:06;98085.50;;;23.28;100.00
35655;BME280;21773;50.010;19.972;2023-09-19T01:26:30;98083.59;;;23.20;100.00
35655;BME280;21773;50.010;19.972;2023-09-19T01:29:44;98063.84;;;23.18;100.00
35655;BME280;21773;50.010;19.972;2023-09-19T01:32:51;98064.97;;;23.17;100.00
35655;BME280;21773;50.010;19.972;2023-09-19T01:35:55;98067.72;;;23.17;100.00
35655;BME280;21773;50.010;19.972;2023-09-19T01:39:02;98059.31;;;23.14;100.00
35655;BME280;21773;50.010;19.972;2023-09-19T01:42:17;98063.03;;;23.09;100.00
35655;BME280;21773;50.010;19.972;2023-09-19T01:45:30;98068.38;;;23.06;100.00
35655;BME280;21773;50.010;19.972;2023-09-19T01:48:42;98063.69;;;23.06;100.00
35655;BME280;21773;50.010;19.972;2023-09-19T01:51:55;98048.78;;;22.99;100.00
35655;BME280;21773;50.010;19.972;2023-09-19T01:55:06;98054.59;;;22.88;100.00
35655;BME280;21773;50.010;19.972;2023-09-19T01:58:17;98039.56;;;22.86;100.00
35655;BME280;21773;50.010;19.972;2023-09-19T02:01:24;98048.13;;;22.76;100.00
35655;BME280;21773;50.010;19.972;2023-09-19T02:04:32;98041.88;;;22.44;100.00
35655;BME280;21773;50.010;19.972;2023-09-19T02:07:38;98049.06;;;22.15;100.00
35655;BME280;21773;50.010;19.972;2023-09-19T02:10:42;98037.72;;;21.99;100.00
35655;BME280;21773;50.010;19.972;2023-09-19T02:13:48;98028.56;;;21.90;100.00
35655;BME280;21773;50.010;19.972;2023-09-19T02:16:56;98024.38;;;21.84;100.00
35655;BME280;21773;50.010;19.972;2023-09-19T02:20:01;98022.44;;;21.84;100.00
35655;BME280;21773;50.010;19.972;2023-09-19T02:23:12;98019.88;;;21.88;100.00
35655;BME280;21773;50.010;19.972;2023-09-19T02:26:17;98025.91;;;21.98;100.00
35655;BME280;21773;50.010;19.972;2023-09-19T02:29:22;98015.31;;;22.14;100.00
35655;BME280;21773;50.010;19.972;2023-09-19T02:32:25;98021.66;;;22.32;100.00
35655;BME280;21773;50.010;19.972;2023-09-19T02:35:29;98018.28;;;22.43;100.00
35655;BME280;21773;50.010;19.972;2023-09-19T02:38:37;98021.25;;;22.56;100.00
35655;BME280;21773;50.010;19.972;2023-09-19T02:41:40;98017.69;;;22.64;100.00
35655;BME280;21773;50.010;19.972;2023-09-19T02:44:45;98009.81;;;22.71;100.00
35655;BME280;21773;50.010;19.972;2023-09-19T02:47:49;98007.53;;;22.73;100.00
35655;BME280;21773;50.010;19.972;2023-09-19T02:50:53;98005.78;;;22.77;100.00
35655;BME280;21773;50.010;19.972;2023-09-19T02:53:56;97993.81;;;22.81;100.00
35655;BME280;21773;50.010;19.972;2023-09-19T02:56:59;97995.75;;;22.81;100.00
35655;BME280;21773;50.010;19.972;2023-09-19T03:00:05;97988.34;;;22.81;100.00
35655;BME280;21773;50.010;19.972;2023-09-19T03:03:09;97992.03;;;22.85;100.00
35655;BME280;21773;50.010;19.972;2023-09-19T03:06:14;97984.44;;;22.91;100.00
35655;BME280;21773;50.010;19.972;2023-09-19T03:09:22;97982.50;;;22.92;100.00
35655;BME280;21773;50.010;19.972;2023-09-19T03:12:25;97970.06;;;22.94;100.00
35655;BME280;21773;50.010;19.972;2023-09-19T03:15:28;97958.41;;;22.97;100.00
35655;BME280;21773;50.010;19.972;2023-09-19T03:18:34;97966.81;;;23.01;100.00
35655;BME280;21773;50.010;19.972;2023-09-19T03:21:39;97959.38;;;23.01;100.00
35655;BME280;21773;50.010;19.972;2023-09-19T03:24:42;97954.69;;;23.02;100.00
35655;BME280;21773;50.010;19.972;2023-09-19T03:27:47;97948.56;;;22.96;100.00
35655;BME280;21773;50.010;19.972;2023-09-19T03:31:01;97947.41;;;22.97;100.00
35655;BME280;21773;50.010;19.972;2023-09-19T03:34:06;97939.50;;;22.96;100.00
35655;BME280;21773;50.010;19.972;2023-09-19T03:37:13;97938.38;;;22.97;100.00
35655;BME280;21773;50.010;19.972;2023-09-19T03:40:16;97920.28;;;22.87;100.00
35655;BME280;21773;50.010;19.972;2023-09-19T03:43:22;97935.59;;;22.88;100.00
35655;BME280;21773;50.010;19.972;2023-09-19T03:46:26;97931.72;;;22.89;100.00
35655;BME280;21773;50.010;19.972;2023-09-19T03:49:30;97929.47;;;22.91;100.00
35655;BME280;21773;50.010;19.972;2023-09-19T03:52:35;97929.47;;;22.91;100.00
35655;BME280;21773;50.010;19.972;2023-09-19T03:55:38;97924.78;;;22.92;100.00
35655;BME280;21773;50.010;19.972;2023-09-19T03:58:41;97917.19;;;22.88;100.00
35655;BME280;21773;50.010;19.972;2023-09-19T04:01:44;97928.19;;;22.88;100.00
35655;BME280;21773;50.010;19.972;2023-09-19T04:04:48;97929.00;;;22.89;100.00
35655;BME280;21773;50.010;19.972;2023-09-19T04:07:53;97914.78;;;22.87;100.00
35655;BME280;21773;50.010;19.972;2023-09-19T04:10:56;97904.91;;;22.86;100.00
35655;BME280;21773;50.010;19.972;2023-09-19T04:14:03;97902.63;;;22.88;100.00
35655;BME280;21773;50.010;19.972;2023-09-19T04:17:06;97905.06;;;22.89;100.00
35655;BME280;21773;50.010;19.972;2023-09-19T04:20:12;97905.56;;;22.92;100.00
35655;BME280;21773;50.010;19.972;2023-09-19T04:23:17;97905.22;;;22.93;100.00
35655;BME280;21773;50.010;19.972;2023-09-19T04:26:21;97901.66;;;22.93;100.00
35655;BME280;21773;50.010;19.972;2023-09-19T04:29:25;97904.09;;;22.94;100.00
35655;BME280;21773;50.010;19.972;2023-09-19T04:32:31;97900.53;;;22.94;100.00
35655;BME280;21773;50.010;19.972;2023-09-19T04:35:35;97906.03;;;22.94;100.00
35655;BME280;21773;50.010;19.972;2023-09-19T04:38:42;97907.16;;;22.93;100.00
35655;BME280;21773;50.010;19.972;2023-09-19T04:41:47;97893.09;;;22.94;100.00
35655;BME280;21773;50.010;19.972;2023-09-19T04:44:51;97899.09;;;22.96;100.00
35655;BME280;21773;50.010;19.972;2023-09-19T04:47:55;97890.84;;;22.96;100.00
35655;BME280;21773;50.010;19.972;2023-09-19T04:50:58;97905.03;;;22.98;100.00
35655;BME280;21773;50.010;19.972;2023-09-19T04:54:03;97904.56;;;22.96;100.00
35655;BME280;21773;50.010;19.972;2023-09-19T04:57:07;97903.59;;;23.01;100.00
35655;BME280;21773;50.010;19.972;2023-09-19T05:00:12;97910.06;;;23.05;100.00
35655;BME280;21773;50.010;19.972;2023-09-19T05:03:16;97914.75;;;23.04;100.00
35655;BME280;21773;50.010;19.972;2023-09-19T05:06:20;97911.03;;;23.00;100.00
35655;BME280;21773;50.010;19.972;2023-09-19T05:09:25;97926.22;;;23.06;100.00
35655;BME280;21773;50.010;19.972;2023-09-19T05:12:29;97919.56;;;23.07;100.00
35655;BME280;21773;50.010;19.972;2023-09-19T05:15:35;97916.53;;;23.00;100.00
35655;BME280;21773;50.010;19.972;2023-09-19T05:18:38;97928.31;;;23.09;100.00
35655;BME280;21773;50.010;19.972;2023-09-19T05:21:42;97925.06;;;23.16;100.00
35655;BME280;21773;50.010;19.972;2023-09-19T05:24:47;97925.41;;;23.14;100.00
35655;BME280;21773;50.010;19.972;2023-09-19T05:27:53;97926.06;;;23.11;100.00
35655;BME280;21773;50.010;19.972;2023-09-19T05:31:00;97921.06;;;23.05;100.00
35655;BME280;21773;50.010;19.972;2023-09-19T05:34:09;97925.56;;;23.09;100.00
35655;BME280;21773;50.010;19.972;2023-09-19T05:37:13;97933.66;;;23.06;100.00
35655;BME280;21773;50.010;19.972;2023-09-19T05:40:20;97937.53;;;23.13;100.00
35655;BME280;21773;50.010;19.972;2023-09-19T05:43:25;97936.88;;;23.08;100.00
35655;BME280;21773;50.010;19.972;2023-09-19T05:46:28;97946.09;;;23.12;100.00
35655;BME280;21773;50.010;19.972;2023-09-19T05:49:32;97943.34;;;23.12;100.00
35655;BME280;21773;50.010;19.972;2023-09-19T05:52:35;97944.81;;;23.09;100.00
35655;BME280;21773;50.010;19.972;2023-09-19T05:55:40;97927.69;;;23.04;100.00
35655;BME280;21773;50.010;19.972;2023-09-19T05:58:44;97947.56;;;23.09;100.00
35655;BME280;21773;50.010;19.972;2023-09-19T06:01:47;97944.31;;;23.07;100.00
35655;BME280;21773;50.010;19.972;2023-09-19T06:04:50;97944.00;;;23.09;100.00
35655;BME280;21773;50.010;19.972;2023-09-19T06:07:55;97945.13;;;23.08;100.00
35655;BME280;21773;50.010;19.972;2023-09-19T06:11:03;97947.41;;;23.06;100.00
35655;BME280;21773;50.010;19.972;2023-09-19T06:14:11;97943.84;;;23.05;100.00
35655;BME280;21773;50.010;19.972;2023-09-19T06:17:14;97947.06;;;23.07;100.00
35655;BME280;21773;50.010;19.972;2023-09-19T06:20:17;97941.41;;;23.12;100.00
35655;BME280;21773;50.010;19.972;2023-09-19T06:23:25;97937.06;;;23.11;100.00
35655;BME280;21773;50.010;19.972;2023-09-19T06:26:32;97943.34;;;23.20;100.00
35655;BME280;21773;50.010;19.972;2023-09-19T06:29:35;97941.41;;;23.21;100.00
35655;BME280;21773;50.010;19.972;2023-09-19T06:32:39;97944.63;;;23.23;100.00
35655;BME280;21773;50.010;19.972;2023-09-19T06:35:46;97947.38;;;23.23;100.00
35655;BME280;21773;50.010;19.972;2023-09-19T06:38:49;97953.38;;;23.08;100.00
35655;BME280;21773;50.010;19.972;2023-09-19T06:41:55;97951.59;;;23.03;100.00
35655;BME280;21773;50.010;19.972;2023-09-19T06:44:58;97953.72;;;22.98;100.00
35655;BME280;21773;50.010;19.972;2023-09-19T06:48:03;97954.53;;;22.89;100.00
35655;BME280;21773;50.010;19.972;2023-09-19T06:51:07;97961.50;;;22.87;100.00
35655;BME280;21773;50.010;19.972;2023-09-19T06:54:15;97927.03;;;22.64;100.00
35655;BME280;21773;50.010;19.972;2023-09-19T06:57:21;97923.94;;;22.48;100.00
35655;BME280;21773;50.010;19.972;2023-09-19T07:00:25;97965.47;;;22.64;100.00
35655;BME280;21773;50.010;19.972;2023-09-19T07:03:30;97962.59;;;22.60;100.00
35655;BME280;21773;50.010;19.972;2023-09-19T07:06:36;97943.19;;;22.57;100.00
35655;BME280;21773;50.010;19.972;2023-09-19T07:09:44;97960.00;;;22.64;100.00
35655;BME280;21773;50.010;19.972;2023-09-19T07:12:56;97969.53;;;22.66;100.00
35655;BME280;21773;50.010;19.972;2023-09-19T07:16:00;97965.16;;;22.65;100.00
35655;BME280;21773;50.010;19.972;2023-09-19T07:19:03;97960.97;;;22.68;100.00
35655;BME280;21773;50.010;19.972;2023-09-19T07:22:06;97956.81;;;22.70;100.00
35655;BME280;21773;50.010;19.972;2023-09-19T07:25:09;97961.63;;;22.65;100.00
35655;BME280;21773;50.010;19.972;2023-09-19T07:28:14;97966.78;;;22.66;100.00
35655;BME280;21773;50.010;19.972;2023-09-19T07:31:18;97975.72;;;22.72;100.00
35655;BME280;21773;50.010;19.972;2023-09-19T07:34:21;97973.13;;;22.75;100.00
35655;BME280;21773;50.010;19.972;2023-09-19T07:37:25;97977.34;;;22.81;100.00
35655;BME280;21773;50.010;19.972;2023-09-19T07:40:28;97977.00;;;22.83;100.00
35655;BME280;21773;50.010;19.972;2023-09-19T07:43:33;97985.25;;;22.83;100.00
35655;BME280;21773;50.010;19.972;2023-09-19T07:46:37;97987.69;;;22.84;100.00
35655;BME280;21773;50.010;19.972;2023-09-19T07:49:46;97980.06;;;22.73;100.00
35655;BME280;21773;50.010;19.972;2023-09-19T07:52:50;97983.97;;;22.72;100.00
35655;BME280;21773;50.010;19.972;2023-09-19T07:56:01;97979.44;;;22.76;100.00
35655;BME280;21773;50.010;19.972;2023-09-19T07:59:07;97985.41;;;22.78;100.00
35655;BME280;21773;50.010;19.972;2023-09-19T08:02:10;97992.38;;;22.75;100.00
35655;BME280;21773;50.010;19.972;2023-09-19T08:05:18;97991.84;;;22.65;100.00
35655;BME280;21773;50.010;19.972;2023-09-19T08:08:23;97992.97;;;22.55;100.00
35655;BME280;21773;50.010;19.972;2023-09-19T08:11:26;97998.44;;;22.55;100.00
35655;BME280;21773;50.010;19.972;2023-09-19T08:14:34;97997.47;;;22.51;100.00
35655;BME280;21773;50.010;19.972;2023-09-19T08:17:37;98003.13;;;22.37;100.00
35655;BME280;21773;50.010;19.972;2023-09-19T08:20:40;98009.53;;;22.24;100.00
35655;BME280;21773;50.010;19.972;2023-09-19T08:23:44;98016.09;;;22.15;100.00
35655;BME280;21773;50.010;19.972;2023-09-19T08:26:52;98004.78;;;21.99;100.00
35655;BME280;21773;50.010;19.972;2023-09-19T08:30:00;98018.00;;;21.97;100.00
35655;BME280;21773;50.010;19.972;2023-09-19T08:33:05;98022.97;;;21.95;100.00
35655;BME280;21773;50.010;19.972;2023-09-19T08:36:09;98031.88;;;22.00;100.00
35655;BME280;21773;50.010;19.972;2023-09-19T08:39:17;98038.31;;;21.96;100.00
35655;BME280;21773;50.010;19.972;2023-09-19T08:42:20;98040.75;;;21.97;100.00
35655;BME280;21773;50.010;19.972;2023-09-19T08:45:28;98045.38;;;21.88;100.00
35655;BME280;21773;50.010;19.972;2023-09-19T08:48:39;98053.38;;;21.98;100.00
35655;BME280;21773;50.010;19.972;2023-09-19T08:51:43;98057.94;;;21.89;100.00
35655;BME280;21773;50.010;19.972;2023-09-19T08:54:48;98063.53;;;21.98;100.00
35655;BME280;21773;50.010;19.972;2023-09-19T08:58:00;98072.88;;;21.97;100.00
35655;BME280;21773;50.010;19.972;2023-09-19T09:01:05;98086.09;;;21.95;100.00
35655;BME280;21773;50.010;19.972;2023-09-19T09:04:09;98068.72;;;21.77;100.00
35655;BME280;21773;50.010;19.972;2023-09-19T09:07:16;98082.16;;;21.87;100.00
35655;BME280;21773;50.010;19.972;2023-09-19T09:10:21;98085.81;;;21.74;100.00
35655;BME280;21773;50.010;19.972;2023-09-19T09:13:24;98096.66;;;21.79;100.00
35655;BME280;21773;50.010;19.972;2023-09-19T09:16:29;98101.06;;;21.89;100.00
35655;BME280;21773;50.010;19.972;2023-09-19T09:19:33;98103.81;;;21.89;100.00
35655;BME280;21773;50.010;19.972;2023-09-19T09:22:36;98109.19;;;21.94;100.00
35655;BME280;21773;50.010;19.972;2023-09-19T09:25:51;98111.22;;;21.88;100.00
35655;BME280;21773;50.010;19.972;2023-09-19T09:28:58;98118.66;;;21.88;100.00
35655;BME280;21773;50.010;19.972;2023-09-19T09:32:21;98121.00;;;21.81;100.00
35655;BME280;21773;50.010;19.972;2023-09-19T09:35:25;98129.28;;;21.89;100.00
35655;BME280;21773;50.010;19.972;2023-09-19T09:38:30;98134.94;;;21.84;100.00
35655;BME280;21773;50.010;19.972;2023-09-19T09:41:45;98132.13;;;21.76;100.00
35655;BME280;21773;50.010;19.972;2023-09-19T09:45:14;98144.41;;;21.78;100.00
35655;BME280;21773;50.010;19.972;2023-09-19T09:48:24;98143.72;;;21.95;100.00
35655;BME280;21773;50.010;19.972;2023-09-19T09:51:33;98151.97;;;21.95;100.00
35655;BME280;21773;50.010;19.972;2023-09-19T09:54:36;98157.53;;;21.90;100.00
35655;BME280;21773;50.010;19.972;2023-09-19T09:57:40;98161.44;;;21.89;100.00
35655;BME280;21773;50.010;19.972;2023-09-19T10:00:52;98172.09;;;21.90;100.00
35655;BME280;21773;50.010;19.972;2023-09-19T10:04:00;98172.84;;;21.82;100.00
35655;BME280;21773;50.010;19.972;2023-09-19T10:07:03;98173.63;;;21.96;100.00
35655;BME280;21773;50.010;19.972;2023-09-19T10:10:13;98177.09;;;21.88;100.00
35655;BME280;21773;50.010;19.972;2023-09-19T10:13:19;98175.16;;;21.89;100.00
35655;BME280;21773;50.010;19.972;2023-09-19T10:16:25;98166.22;;;21.61;100.00
35655;BME280;21773;50.010;19.972;2023-09-19T10:19:37;98191.25;;;21.82;100.00
35655;BME280;21773;50.010;19.972;2023-09-19T10:22:49;98191.94;;;21.87;100.00
35655;BME280;21773;50.010;19.972;2023-09-19T10:26:01;98186.56;;;22.04;100.00
35655;BME280;21773;50.010;19.972;2023-09-19T10:29:06;98191.19;;;22.18;100.00
35655;BME280;21773;50.010;19.972;2023-09-19T10:32:14;98195.88;;;22.17;100.00
35655;BME280;21773;50.010;19.972;2023-09-19T10:35:22;98195.91;;;22.26;100.00
35655;BME280;21773;50.010;19.972;2023-09-19T10:38:27;98189.91;;;22.24;100.00
35655;BME280;21773;50.010;19.972;2023-09-19T10:41:38;98192.59;;;22.37;100.00
35655;BME280;21773;50.010;19.972;2023-09-19T10:44:45;98199.47;;;22.26;100.00
35655;BME280;21773;50.010;19.972;2023-09-19T10:47:51;98202.72;;;22.28;100.00
35655;BME280;21773;50.010;19.972;2023-09-19T10:51:01;98216.03;;;22.43;100.00
35655;BME280;21773;50.010;19.972;2023-09-19T10:54:10;98214.78;;;22.50;100.00
35655;BME280;21773;50.010;19.972;2023-09-19T10:57:19;98214.66;;;22.55;100.00
35655;BME280;21773;50.010;19.972;2023-09-19T11:00:24;98219.47;;;22.49;100.00
35655;BME280;21773;50.010;19.972;2023-09-19T11:03:29;98228.63;;;22.67;100.00
35655;BME280;21773;50.010;19.972;2023-09-19T11:06:39;98225.19;;;22.61;100.00
35655;BME280;21773;50.010;19.972;2023-09-19T11:09:48;98225.28;;;22.48;100.00
35655;BME280;21773;50.010;19.972;2023-09-19T11:12:54;98236.31;;;22.56;100.00
35655;BME280;21773;50.010;19.972;2023-09-19T11:16:03;98232.63;;;22.61;100.00
35655;BME280;21773;50.010;19.972;2023-09-19T11:19:07;98238.81;;;22.66;100.00
35655;BME280;21773;50.010;19.972;2023-09-19T11:22:20;98242.34;;;22.67;100.00
35655;BME280;21773;50.010;19.972;2023-09-19T11:25:41;98244.72;;;22.60;100.00
35655;BME280;21773;50.010;19.972;2023-09-19T11:29:24;98242.50;;;22.62;100.00
35655;BME280;21773;50.010;19.972;2023-09-19T11:36:05;98250.44;;;22.41;100.00
35655;BME280;21773;50.010;19.972;2023-09-19T11:39:24;98242.84;;;22.38;100.00
35655;BME280;21773;50.010;19.972;2023-09-19T11:42:42;98260.19;;;22.47;100.00
35655;BME280;21773;50.010;19.972;2023-09-19T11:46:08;98255.19;;;22.49;100.00
35655;BME280;21773;50.010;19.972;2023-09-19T11:49:12;98262.94;;;22.47;100.00
35655;BME280;21773;50.010;19.972;2023-09-19T11:52:22;98263.38;;;22.40;100.00
35655;BME280;21773;50.010;19.972;2023-09-19T11:55:29;98263.66;;;22.39;100.00
35655;BME280;21773;50.010;19.972;2023-09-19T11:58:34;98258.13;;;22.30;100.00
35655;BME280;21773;50.010;19.972;2023-09-19T12:01:43;98266.66;;;22.29;100.00
35655;BME280;21773;50.010;19.972;2023-09-19T12:04:56;98259.25;;;22.29;100.00
35655;BME280;21773;50.010;19.972;2023-09-19T12:08:02;98261.63;;;22.22;100.00
35655;BME280;21773;50.010;19.972;2023-09-19T12:11:14;98260.00;;;22.21;100.00
35655;BME280;21773;50.010;19.972;2023-09-19T12:14:22;98267.13;;;22.22;100.00
35655;BME280;21773;50.010;19.972;2023-09-19T12:17:35;98268.56;;;22.20;100.00
35655;BME280;21773;50.010;19.972;2023-09-19T12:20:42;98271.00;;;22.21;100.00
35655;BME280;21773;50.010;19.972;2023-09-19T12:24:04;98262.72;;;22.13;100.00
35655;BME280;21773;50.010;19.972;2023-09-19T12:27:09;98279.88;;;22.18;100.00
35655;BME280;21773;50.010;19.972;2023-09-19T12:30:14;98272.75;;;22.17;100.00
35655;BME280;21773;50.010;19.972;2023-09-19T12:33:23;98265.19;;;22.23;100.00
35655;BME280;21773;50.010;19.972;2023-09-19T12:36:27;98278.16;;;22.31;100.00
35655;BME280;21773;50.010;19.972;2023-09-19T12:39:32;98281.59;;;22.36;100.00
35655;BME280;21773;50.010;19.972;2023-09-19T12:42:39;98278.16;;;22.31;100.00
35655;BME280;21773;50.010;19.972;2023-09-19T12:45:43;98283.16;;;22.29;100.00
35655;BME280;21773;50.010;19.972;2023-09-19T12:48:47;98268.63;;;22.28;100.00
35655;BME280;21773;50.010;19.972;2023-09-19T12:51:55;98285.78;;;22.34;100.00
35655;BME280;21773;50.010;19.972;2023-09-19T12:55:00;98274.47;;;22.35;100.00
35655;BME280;21773;50.010;19.972;2023-09-19T12:58:12;98278.16;;;22.31;100.00
35655;BME280;21773;50.010;19.972;2023-09-19T13:01:17;98272.94;;;22.43;100.00
35655;BME280;21773;50.010;19.972;2023-09-19T13:04:23;98277.78;;;22.46;100.00
35655;BME280;21773;50.010;19.972;2023-09-19T13:07:40;98284.78;;;22.52;100.00
35655;BME280;21773;50.010;19.972;2023-09-19T13:11:03;98278.66;;;22.55;100.00
35655;BME280;21773;50.010;19.972;2023-09-19T13:14:17;98285.50;;;22.66;100.00
35655;BME280;21773;50.010;19.972;2023-09-19T13:17:21;98296.16;;;22.68;100.00
35655;BME280;21773;50.010;19.972;2023-09-19T13:20:26;98295.31;;;22.81;100.00
35655;BME280;21773;50.010;19.972;2023-09-19T13:23:31;98293.38;;;22.81;100.00
35655;BME280;21773;50.010;19.972;2023-09-19T13:26:34;98289.03;;;22.89;100.00
35655;BME280;21773;50.010;19.972;2023-09-19T13:29:38;98298.63;;;23.00;100.00
35655;BME280;21773;50.010;19.972;2023-09-19T13:32:41;98308.69;;;23.05;100.00
35655;BME280;21773;50.010;19.972;2023-09-19T13:35:45;98303.00;;;23.01;100.00
35655;BME280;21773;50.010;19.972;2023-09-19T13:38:48;98309.97;;;23.07;100.00
35655;BME280;21773;50.010;19.972;2023-09-19T13:41:51;98311.25;;;23.01;100.00
35655;BME280;21773;50.010;19.972;2023-09-19T13:44:56;98315.00;;;23.05;100.00
35655;BME280;21773;50.010;19.972;2023-09-19T13:48:00;98312.41;;;23.09;100.00
35655;BME280;21773;50.010;19.972;2023-09-19T13:51:04;98303.53;;;23.12;100.00
35655;BME280;21773;50.010;19.972;2023-09-19T13:54:08;98299.19;;;23.19;100.00
35655;BME280;21773;50.010;19.972;2023-09-19T13:57:10;98299.06;;;23.33;100.00
35655;BME280;21773;50.010;19.972;2023-09-19T14:00:15;98298.50;;;23.45;100.00
35655;BME280;21773;50.010;19.972;2023-09-19T14:03:19;98293.69;;;23.67;100.00
35655;BME280;21773;50.010;19.972;2023-09-19T14:06:23;98300.19;;;23.97;100.00
35655;BME280;21773;50.010;19.972;2023-09-19T14:09:27;98296.66;;;24.14;100.00
35655;BME280;21773;50.010;19.972;2023-09-19T14:12:30;98303.28;;;24.30;100.00
35655;BME280;21773;50.010;19.972;2023-09-19T14:15:37;98300.03;;;24.45;100.00
35655;BME280;21773;50.010;19.972;2023-09-19T14:18:41;98304.72;;;24.53;100.00
35655;BME280;21773;50.010;19.972;2023-09-19T14:21:44;98300.03;;;24.63;100.00
35655;BME280;21773;50.010;19.972;2023-09-19T14:24:47;98307.59;;;24.74;100.00
35655;BME280;21773;50.010;19.972;2023-09-19T14:27:50;98307.25;;;24.93;100.00
35655;BME280;21773;50.010;19.972;2023-09-19T14:30:55;98310.47;;;25.03;100.00
35655;BME280;21773;50.010;19.972;2023-09-19T14:33:58;98317.41;;;25.10;100.00
35655;BME280;21773;50.010;19.972;2023-09-19T14:37:02;98323.94;;;25.05;100.00
35655;BME280;21773;50.010;19.972;2023-09-19T14:40:06;98322.50;;;24.82;100.00
35655;BME280;21773;50.010;19.972;2023-09-19T14:43:11;98327.25;;;24.73;100.00
35655;BME280;21773;50.010;19.972;2023-09-19T14:46:16;98331.63;;;24.56;100.00
35655;BME280;21773;50.010;19.972;2023-09-19T14:49:21;98320.94;;;24.46;100.00
35655;BME280;21773;50.010;19.972;2023-09-19T14:52:24;98333.72;;;24.59;100.00
35655;BME280;21773;50.010;19.972;2023-09-19T14:55:30;98337.13;;;24.65;100.00
35655;BME280;21773;50.010;19.972;2023-09-19T14:58:37;98345.03;;;24.92;100.00
35655;BME280;21773;50.010;19.972;2023-09-19T15:01:43;98340.94;;;25.16;100.00
35655;BME280;21773;50.010;19.972;2023-09-19T15:04:46;98333.44;;;25.25;100.00
35655;BME280;21773;50.010;19.972;2023-09-19T15:07:50;98340.72;;;25.29;100.00
35655;BME280;21773;50.010;19.972;2023-09-19T15:10:53;98348.31;;;25.32;100.00
35655;BME280;21773;50.010;19.972;2023-09-19T15:13:57;98339.94;;;25.58;100.00
35655;BME280;21773;50.010;19.972;2023-09-19T15:17:02;98345.56;;;25.70;100.00
35655;BME280;21773;50.010;19.972;2023-09-19T15:20:07;98350.91;;;25.75;100.00
35655;BME280;21773;50.010;19.972;2023-09-19T15:23:10;98340.75;;;25.59;100.00
35655;BME280;21773;50.010;19.972;2023-09-19T15:26:14;98354.25;;;25.60;100.00
35655;BME280;21773;50.010;19.972;2023-09-19T15:29:22;98358.16;;;25.51;100.00
35655;BME280;21773;50.010;19.972;2023-09-19T15:32:27;98353.94;;;25.44;100.00
35655;BME280;21773;50.010;19.972;2023-09-19T15:35:30;98354.19;;;25.31;100.00
35655;BME280;21773;50.010;19.972;2023-09-19T15:38:57;98352.44;;;25.18;100.00
35655;BME280;21773;50.010;19.972;2023-09-19T15:42:01;98359.47;;;24.98;100.00
35655;BME280;21773;50.010;19.972;2023-09-19T15:45:05;98364.34;;;24.75;100.00
35655;BME280;21773;50.010;19.972;2023-09-19T15:48:10;98359.81;;;24.53;100.00
35655;BME280;21773;50.010;19.972;2023-09-19T15:51:13;98363.56;;;24.40;100.00
35655;BME280;21773;50.010;19.972;2023-09-19T15:54:17;98359.03;;;24.27;100.00
35655;BME280;21773;50.010;19.972;2023-09-19T15:57:20;98356.44;;;24.22;100.00
35655;BME280;21773;50.010;19.972;2023-09-19T16:00:24;98356.25;;;24.10;100.00
35655;BME280;21773;50.010;19.972;2023-09-19T16:03:29;98361.44;;;24.03;100.00
35655;BME280;21773;50.010;19.972;2023-09-19T16:06:32;98362.56;;;23.93;100.00
35655;BME280;21773;50.010;19.972;2023-09-19T16:09:35;98370.31;;;23.83;100.00